Time;durP1;ratioP1;P1;durP2;ratioP2;P2;SDS_P1;SDS_P2;PMS_P1;PMS_P2;Temp;Humidity;BMP_temperature;BMP_pressure;BME280_temperature;BME280_humidity;BME280_pressure;Samples;Min_cycle;Max_cycle;Signal;HPM_P1;HPM_P2
2021/07/25 00:00:59;;;;;;;13.18;9.85;;;22.70;81.50;;;;;;5071309;28;20041;-68
2021/07/25 00:03:26;;;;;;;12.05;10.02;;;22.60;81.20;;;;;;5071425;28;20105;-67
2021/07/25 00:05:52;;;;;;;11.65;10.00;;;22.60;81.30;;;;;;5071504;28;20094;-68
2021/07/25 00:08:19;;;;;;;11.00;9.55;;;22.60;81.60;;;;;;5071297;28;20044;-67
2021/07/25 00:10:48;;;;;;;10.90;9.00;;;22.60;82.10;;;;;;5060482;28;20125;-67
2021/07/25 00:13:16;;;;;;;10.75;9.57;;;22.50;82.50;;;;;;5051748;28;20090;-67
2021/07/25 00:15:44;;;;;;;12.35;9.60;;;22.40;83.40;;;;;;5051396;28;20508;-67
2021/07/25 00:18:11;;;;;;;12.40;10.18;;;22.30;83.60;;;;;;5052004;28;20045;-67
2021/07/25 00:20:37;;;;;;;11.48;10.15;;;22.20;83.90;;;;;;5059518;28;20045;-67
2021/07/25 00:23:05;;;;;;;11.70;9.45;;;22.10;84.10;;;;;;5071444;28;20049;-68
2021/07/25 00:25:32;;;;;;;13.15;10.05;;;22.00;84.70;;;;;;5053344;28;20071;-67
2021/07/25 00:28:00;;;;;;;11.73;10.48;;;21.90;85.10;;;;;;5067805;28;20135;-69
2021/07/25 00:30:27;;;;;;;14.80;9.55;;;21.70;85.90;;;;;;5074538;28;20492;-67
2021/07/25 00:32:55;;;;;;;10.27;9.15;;;21.70;87.10;;;;;;5068564;28;20045;-68
2021/07/25 00:35:21;;;;;;;10.18;9.07;;;21.60;88.10;;;;;;5062980;28;20098;-67
2021/07/25 00:37:49;;;;;;;11.77;10.32;;;21.50;89.20;;;;;;5055443;28;20563;-69
2021/07/25 00:40:26;;;;;;;11.57;9.43;;;21.40;90.20;;;;;;5061464;28;20096;-66
2021/07/25 00:42:53;;;;;;;13.10;10.27;;;21.30;90.90;;;;;;5075392;28;20110;-67
2021/07/25 00:45:21;;;;;;;10.70;9.15;;;21.30;91.50;;;;;;5070853;28;20098;-69
2021/07/25 00:47:48;;;;;;;11.10;9.90;;;21.20;92.10;;;;;;5068199;28;20099;-68
2021/07/25 00:50:16;;;;;;;11.43;9.00;;;21.00;92.70;;;;;;5054296;28;20551;-66
2021/07/25 00:52:43;;;;;;;15.20;10.35;;;20.90;93.50;;;;;;5058964;28;20087;-67
2021/07/25 00:55:12;;;;;;;13.40;10.20;;;20.90;94.20;;;;;;5055405;28;20456;-67
2021/07/25 00:57:38;;;;;;;18.27;10.85;;;20.80;94.80;;;;;;5056399;28;20037;-67
2021/07/25 01:00:07;;;;;;;14.18;10.07;;;20.70;96.00;;;;;;5068643;28;20439;-67
2021/07/25 01:02:42;;;;;;;16.10;10.50;;;20.70;96.60;;;;;;5074444;28;20127;-67
2021/07/25 01:05:13;;;;;;;12.15;10.82;;;20.70;97.10;;;;;;5074832;28;20101;-68
2021/07/25 01:07:48;;;;;;;13.43;11.30;;;20.60;97.50;;;;;;5057224;28;20045;-69
2021/07/25 01:10:19;;;;;;;12.13;10.07;;;20.60;98.50;;;;;;5053968;28;20520;-68
2021/07/25 01:12:52;;;;;;;15.38;10.82;;;20.50;98.90;;;;;;5063672;28;20102;-68
2021/07/25 01:15:20;;;;;;;12.55;10.13;;;20.50;99.70;;;;;;5074527;28;20045;-69
2021/07/25 01:17:48;;;;;;;14.52;10.52;;;20.50;99.90;;;;;;5074496;28;20052;-69
2021/07/25 01:20:16;;;;;;;13.23;10.20;;;20.50;99.90;;;;;;5069535;28;20552;-69
2021/07/25 01:22:46;;;;;;;14.25;10.52;;;20.50;99.90;;;;;;5059731;28;20099;-70
2021/07/25 01:25:15;;;;;;;14.95;10.10;;;20.40;99.90;;;;;;5054467;28;20053;-67
2021/07/25 01:27:45;;;;;;;15.25;10.57;;;20.30;99.90;;;;;;5059525;28;20122;-67
2021/07/25 01:30:14;;;;;;;15.02;11.23;;;20.30;99.90;;;;;;5067269;28;20064;-67
2021/07/25 01:32:42;;;;;;;14.05;10.65;;;20.20;99.90;;;;;;5056772;28;20463;-68
2021/07/25 01:35:11;;;;;;;14.88;10.85;;;20.20;99.90;;;;;;5054364;28;20041;-67
2021/07/25 01:37:40;;;;;;;12.80;10.60;;;20.20;99.90;;;;;;5054177;28;20467;-68
2021/07/25 01:40:15;;;;;;;16.52;10.27;;;20.30;99.90;;;;;;5053695;28;20533;-66
2021/07/25 01:42:43;;;;;;;17.83;11.35;;;20.20;99.90;;;;;;5054611;28;20045;-67
2021/07/25 01:45:10;;;;;;;11.73;10.52;;;20.10;99.90;;;;;;5067701;28;20037;-67
2021/07/25 01:47:37;;;;;;;13.05;10.75;;;20.10;99.90;;;;;;5057647;28;20045;-68
2021/07/25 01:50:05;;;;;;;14.10;11.10;;;20.10;99.90;;;;;;5053944;28;20045;-72
2021/07/25 01:52:31;;;;;;;15.48;9.52;;;20.10;99.90;;;;;;5074028;28;20046;-69
2021/07/25 01:54:59;;;;;;;13.95;10.13;;;20.10;99.90;;;;;;5055849;28;20037;-68
2021/07/25 01:57:26;;;;;;;15.52;10.77;;;20.00;99.90;;;;;;5052561;28;20055;-70
2021/07/25 01:59:53;;;;;;;13.35;10.95;;;20.00;99.90;;;;;;5053911;28;20044;-66
2021/07/25 02:02:19;;;;;;;13.57;10.77;;;20.00;99.90;;;;;;5056796;28;20044;-70
2021/07/25 02:04:46;;;;;;;13.75;10.20;;;20.10;99.90;;;;;;5053853;28;20048;-66
2021/07/25 02:07:12;;;;;;;13.43;10.82;;;20.00;99.90;;;;;;5053620;28;20049;-67
2021/07/25 02:09:39;;;;;;;13.88;11.07;;;20.00;99.90;;;;;;5053024;28;20102;-66
2021/07/25 02:12:09;;;;;;;13.65;10.60;;;19.90;99.90;;;;;;5053762;28;20102;-66
2021/07/25 02:14:37;;;;;;;15.93;10.77;;;19.90;99.90;;;;;;5054138;28;20048;-65
2021/07/25 02:17:04;;;;;;;15.05;11.48;;;19.90;99.90;;;;;;5073406;28;20492;-67
2021/07/25 02:19:31;;;;;;;15.15;10.82;;;20.00;99.90;;;;;;5072645;28;20045;-65
2021/07/25 02:21:58;;;;;;;14.07;11.45;;;20.00;99.90;;;;;;5073378;28;20040;-64
2021/07/25 02:24:25;;;;;;;12.05;9.95;;;20.00;99.90;;;;;;5073524;28;20047;-68
2021/07/25 02:26:52;;;;;;;14.25;11.18;;;19.90;99.90;;;;;;5073311;28;20040;-66
2021/07/25 02:29:20;;;;;;;14.60;10.05;;;19.90;99.90;;;;;;5060133;28;20052;-67
2021/07/25 02:31:47;;;;;;;12.45;10.55;;;19.90;99.90;;;;;;5073478;28;20094;-66
2021/07/25 02:34:14;;;;;;;12.60;10.90;;;19.90;99.90;;;;;;5072593;28;20542;-66
2021/07/25 02:36:41;;;;;;;11.82;10.02;;;19.80;99.90;;;;;;5053494;28;20053;-67
2021/07/25 02:39:08;;;;;;;15.68;10.30;;;19.80;99.90;;;;;;5052677;28;20041;-67
2021/07/25 02:41:34;;;;;;;14.05;10.40;;;19.80;99.90;;;;;;5060077;28;20094;-66
2021/07/25 02:44:01;;;;;;;11.75;10.18;;;19.70;99.90;;;;;;5068283;28;20493;-67
2021/07/25 02:46:29;;;;;;;11.90;10.05;;;19.70;99.90;;;;;;5052983;28;20425;-67
2021/07/25 02:48:55;;;;;;;13.90;11.38;;;19.70;99.90;;;;;;5052234;28;20065;-66
2021/07/25 02:51:22;;;;;;;12.43;10.35;;;19.60;99.90;;;;;;5072710;28;20554;-66
2021/07/25 02:53:48;;;;;;;16.55;10.65;;;19.50;99.90;;;;;;5070940;28;20041;-66
2021/07/25 02:56:15;;;;;;;11.35;9.88;;;19.40;99.90;;;;;;5055499;28;20040;-67
2021/07/25 02:58:42;;;;;;;15.77;10.55;;;19.40;99.90;;;;;;5060223;28;20045;-67
2021/07/25 03:01:12;;;;;;;14.70;10.90;;;19.40;99.90;;;;;;5052731;28;20554;-67
2021/07/25 03:03:40;;;;;;;14.75;10.75;;;19.30;99.90;;;;;;5052666;28;20086;-69
2021/07/25 03:06:07;;;;;;;16.98;11.52;;;19.30;99.90;;;;;;5052977;28;20037;-67
2021/07/25 03:08:35;;;;;;;13.20;10.65;;;19.40;99.90;;;;;;5052206;28;20045;-67
2021/07/25 03:11:02;;;;;;;13.73;10.88;;;19.40;99.90;;;;;;5052633;28;20460;-69
2021/07/25 03:13:29;;;;;;;13.07;10.23;;;19.40;99.90;;;;;;5052485;28;20393;-67
2021/07/25 03:15:55;;;;;;;14.20;10.23;;;19.40;99.90;;;;;;5052585;28;20048;-66
2021/07/25 03:18:22;;;;;;;12.57;11.18;;;19.30;99.90;;;;;;5058764;28;20048;-64
2021/07/25 03:20:50;;;;;;;13.48;10.25;;;19.50;99.90;;;;;;5067915;28;20186;-65
2021/07/25 03:23:16;;;;;;;14.55;11.52;;;19.40;99.90;;;;;;5065798;28;20037;-65
2021/07/25 03:25:43;;;;;;;16.50;10.90;;;19.30;99.90;;;;;;5067059;28;20048;-66
2021/07/25 03:28:09;;;;;;;15.80;11.07;;;19.30;99.90;;;;;;5069542;28;20090;-67
2021/07/25 03:30:36;;;;;;;14.45;10.93;;;19.20;99.90;;;;;;5070706;28;20048;-67
2021/07/25 03:33:02;;;;;;;19.08;10.88;;;19.20;99.90;;;;;;5071708;28;20050;-67
2021/07/25 03:35:29;;;;;;;12.05;10.75;;;19.20;99.90;;;;;;5071807;28;20048;-70
2021/07/25 03:37:57;;;;;;;14.25;10.82;;;19.10;99.90;;;;;;5071929;28;20041;-68
2021/07/25 03:40:25;;;;;;;16.08;11.38;;;19.20;99.90;;;;;;5071885;28;20090;-67
2021/07/25 03:42:52;;;;;;;13.30;10.75;;;19.10;99.90;;;;;;5070936;28;20045;-67
2021/07/25 03:45:18;;;;;;;15.15;11.65;;;19.20;99.90;;;;;;5058995;28;20091;-67
2021/07/25 03:47:45;;;;;;;19.88;11.15;;;19.10;99.90;;;;;;5053080;28;20099;-67
2021/07/25 03:50:12;;;;;;;12.80;11.18;;;19.10;99.90;;;;;;5071227;28;20048;-67
2021/07/25 03:52:38;;;;;;;15.52;11.70;;;19.10;99.90;;;;;;5065364;28;20037;-66
2021/07/25 03:55:09;;;;;;;13.27;10.80;;;19.10;99.90;;;;;;5069218;28;20044;-68
2021/07/25 03:57:37;;;;;;;15.70;11.00;;;19.10;99.90;;;;;;5068348;28;20041;-65
2021/07/25 04:00:04;;;;;;;13.93;10.50;;;19.10;99.90;;;;;;5066262;28;20102;-68
2021/07/25 04:02:30;;;;;;;14.32;11.05;;;19.10;99.90;;;;;;5071876;28;20467;-68
2021/07/25 04:04:57;;;;;;;14.05;11.52;;;19.10;99.90;;;;;;5072345;28;20052;-67
2021/07/25 04:07:24;;;;;;;14.30;11.57;;;19.10;99.90;;;;;;5070431;28;20090;-68
2021/07/25 04:09:50;;;;;;;14.73;10.88;;;19.10;99.90;;;;;;5051347;28;20090;-66
2021/07/25 04:12:18;;;;;;;14.98;10.48;;;19.20;99.90;;;;;;5052507;28;20417;-66
2021/07/25 04:14:45;;;;;;;14.40;11.30;;;19.10;99.90;;;;;;5051929;28;20049;-67
2021/07/25 04:17:12;;;;;;;15.18;11.82;;;19.10;99.90;;;;;;5051722;28;20068;-66
2021/07/25 04:19:38;;;;;;;13.52;10.90;;;19.10;99.90;;;;;;5055578;28;20094;-67
2021/07/25 04:22:05;;;;;;;14.25;10.93;;;19.30;99.90;;;;;;5066601;28;20040;-69
2021/07/25 04:24:31;;;;;;;15.38;11.85;;;19.30;99.90;;;;;;5071659;28;20098;-67
2021/07/25 04:26:58;;;;;;;13.15;10.88;;;19.30;99.90;;;;;;5069928;28;20044;-67
2021/07/25 04:29:27;;;;;;;15.90;12.13;;;19.40;99.90;;;;;;5070133;28;20095;-66
2021/07/25 04:31:54;;;;;;;12.65;11.30;;;19.50;99.90;;;;;;5069937;28;20485;-66
2021/07/25 04:34:23;;;;;;;11.18;9.50;;;19.50;99.90;;;;;;5071346;28;20045;-67
2021/07/25 04:36:50;;;;;;;12.35;10.93;;;19.60;99.90;;;;;;5051443;28;20061;-66
2021/07/25 04:39:17;;;;;;;15.95;10.45;;;19.60;99.90;;;;;;5050751;28;20041;-66
2021/07/25 04:41:53;;;;;;;12.45;10.32;;;19.70;99.90;;;;;;5051358;28;20049;-72
2021/07/25 04:44:24;;;;;;;15.65;11.10;;;19.70;99.90;;;;;;5051598;28;20405;-67
2021/07/25 04:46:55;;;;;;;12.82;10.38;;;19.90;99.90;;;;;;5051261;28;20041;-67
2021/07/25 04:49:31;;;;;;;13.70;10.48;;;19.90;99.90;;;;;;5066202;28;20382;-67
2021/07/25 04:51:58;;;;;;;13.05;10.80;;;19.90;99.90;;;;;;5071306;28;20070;-68
2021/07/25 04:54:26;;;;;;;15.27;11.27;;;19.90;99.90;;;;;;5069710;28;20440;-66
2021/07/25 04:57:00;;;;;;;14.60;10.95;;;19.90;99.90;;;;;;5061073;28;20052;-67
2021/07/25 04:59:29;;;;;;;13.80;11.32;;;20.00;99.90;;;;;;5050144;28;20080;-67
2021/07/25 05:02:00;;;;;;;14.82;11.00;;;20.10;99.90;;;;;;5050727;28;20121;-66
2021/07/25 05:04:28;;;;;;;15.63;12.35;;;20.00;99.90;;;;;;5050735;28;20083;-67
2021/07/25 05:06:56;;;;;;;15.60;10.55;;;20.00;99.90;;;;;;5050863;28;20045;-67
2021/07/25 05:09:23;;;;;;;14.30;11.15;;;20.00;99.90;;;;;;5050514;28;20091;-67
2021/07/25 05:11:54;;;;;;;13.18;11.32;;;20.00;99.90;;;;;;5051369;28;20562;-66
2021/07/25 05:14:30;;;;;;;13.38;11.63;;;20.10;99.90;;;;;;5054453;28;20049;-65
2021/07/25 05:17:04;;;;;;;13.93;10.63;;;20.20;99.90;;;;;;5053946;28;20427;-65
2021/07/25 05:19:45;;;;;;;13.98;11.02;;;20.20;99.90;;;;;;5053542;28;20045;-65
2021/07/25 05:22:22;;;;;;;12.05;10.73;;;20.30;99.90;;;;;;5054115;28;20049;-65
2021/07/25 05:24:51;;;;;;;12.43;10.65;;;20.30;99.90;;;;;;5054230;28;20099;-67
2021/07/25 05:27:20;;;;;;;13.15;10.65;;;20.40;99.90;;;;;;5054091;28;20045;-66
2021/07/25 05:29:48;;;;;;;13.60;10.68;;;20.50;99.90;;;;;;5053584;28;20075;-65
2021/07/25 05:32:16;;;;;;;11.25;10.10;;;20.60;99.90;;;;;;5054111;28;20041;-65
2021/07/25 05:34:43;;;;;;;13.43;11.35;;;20.80;99.90;;;;;;5054050;28;20115;-65
2021/07/25 05:37:10;;;;;;;15.35;12.13;;;20.90;99.90;;;;;;5054100;28;20079;-69
2021/07/25 05:39:36;;;;;;;16.15;12.00;;;21.00;99.90;;;;;;5053741;28;20041;-72
2021/07/25 05:42:03;;;;;;;17.13;11.20;;;21.10;99.90;;;;;;5054216;28;20049;-70
2021/07/25 05:44:31;;;;;;;13.95;11.30;;;21.20;99.90;;;;;;5053969;28;20099;-71
2021/07/25 05:46:58;;;;;;;15.68;11.63;;;21.40;99.90;;;;;;5054206;28;20045;-69
2021/07/25 05:49:26;;;;;;;14.73;11.30;;;21.60;99.90;;;;;;5052948;28;20107;-67
2021/07/25 05:51:53;;;;;;;14.95;11.60;;;21.70;99.90;;;;;;5055241;28;20049;-70
2021/07/25 05:54:19;;;;;;;12.98;11.05;;;21.80;99.90;;;;;;5053622;28;20099;-66
2021/07/25 05:56:46;;;;;;;15.48;12.13;;;21.90;99.90;;;;;;5053876;28;20083;-67
2021/07/25 05:59:13;;;;;;;13.60;11.68;;;22.00;99.90;;;;;;5052875;28;20041;-67
2021/07/25 06:01:39;;;;;;;14.15;10.88;;;22.20;99.90;;;;;;5053543;28;20103;-67
2021/07/25 06:04:06;;;;;;;14.65;12.10;;;22.30;99.90;;;;;;5053630;28;20052;-67
2021/07/25 06:06:34;;;;;;;14.95;11.80;;;22.30;99.90;;;;;;5053849;28;20045;-68
2021/07/25 06:09:03;;;;;;;17.23;11.68;;;22.40;99.90;;;;;;5052898;28;20044;-69
2021/07/25 06:11:30;;;;;;;13.63;11.85;;;22.30;99.90;;;;;;5053434;28;20072;-68
2021/07/25 06:13:57;;;;;;;12.85;11.52;;;22.40;99.90;;;;;;5052954;28;20091;-69
2021/07/25 06:16:24;;;;;;;14.18;11.48;;;22.60;99.90;;;;;;5053658;28;20045;-67
2021/07/25 06:18:50;;;;;;;13.45;10.93;;;22.80;99.90;;;;;;5059780;28;20048;-69
2021/07/25 06:21:17;;;;;;;12.52;11.23;;;22.90;99.90;;;;;;5058227;28;20049;-67
2021/07/25 06:23:47;;;;;;;16.33;12.88;;;23.00;99.90;;;;;;5053936;28;20053;-69
2021/07/25 06:26:13;;;;;;;13.02;11.80;;;23.30;99.90;;;;;;5054384;28;20110;-70
2021/07/25 06:28:41;;;;;;;14.75;10.77;;;23.50;99.90;;;;;;5053758;28;20053;-70
2021/07/25 06:31:07;;;;;;;13.85;11.52;;;23.50;99.90;;;;;;5062729;28;20059;-70
2021/07/25 06:33:34;;;;;;;12.48;11.18;;;23.50;99.90;;;;;;5073349;28;20045;-71
2021/07/25 06:36:01;;;;;;;15.15;12.65;;;23.30;99.90;;;;;;5074184;28;20049;-71
2021/07/25 06:38:27;;;;;;;14.20;11.30;;;23.40;99.90;;;;;;5073489;28;20105;-70
2021/07/25 06:40:57;;;;;;;13.68;11.68;;;23.40;99.90;;;;;;5073381;28;20044;-70
2021/07/25 06:43:24;;;;;;;13.68;11.43;;;23.30;99.90;;;;;;5074848;28;20098;-69
2021/07/25 06:45:51;;;;;;;12.65;11.35;;;23.40;99.90;;;;;;5073804;28;20049;-66
2021/07/25 06:48:19;;;;;;;15.60;12.15;;;23.30;99.90;;;;;;5072506;28;20117;-66
2021/07/25 06:50:48;;;;;;;12.82;11.00;;;23.40;99.90;;;;;;5072897;28;20052;-67
2021/07/25 06:53:15;;;;;;;14.88;11.85;;;23.40;99.90;;;;;;5073300;28;20397;-67
2021/07/25 06:55:41;;;;;;;15.25;12.35;;;23.50;99.90;;;;;;5063200;28;20049;-66
2021/07/25 06:58:09;;;;;;;14.77;11.65;;;23.40;99.90;;;;;;5073758;28;20098;-72
2021/07/25 07:00:36;;;;;;;13.07;11.02;;;23.60;99.90;;;;;;5072974;28;20044;-70
2021/07/25 07:03:03;;;;;;;17.20;13.43;;;23.60;99.90;;;;;;5066242;28;20048;-72
2021/07/25 07:05:31;;;;;;;13.73;10.80;;;23.70;99.90;;;;;;5053156;28;20044;-72
2021/07/25 07:07:59;;;;;;;17.35;12.50;;;23.70;99.90;;;;;;5053875;28;20045;-68
2021/07/25 07:10:28;;;;;;;14.48;11.88;;;23.90;99.90;;;;;;5052042;28;20087;-69
2021/07/25 07:12:56;;;;;;;12.85;11.45;;;24.10;99.90;;;;;;5058258;28;20489;-69
2021/07/25 07:15:26;;;;;;;16.27;12.73;;;24.40;99.90;;;;;;5060713;28;20098;-68
2021/07/25 07:17:55;;;;;;;14.20;12.70;;;25.20;99.90;;;;;;5052167;28;20102;-68
2021/07/25 07:20:22;;;;;;;14.07;11.98;;;25.70;99.90;;;;;;5051768;28;20045;-69
2021/07/25 07:22:53;;;;;;;13.90;11.80;;;26.10;99.90;;;;;;5051987;28;20049;-69
2021/07/25 07:25:20;;;;;;;16.95;11.70;;;26.80;98.30;;;;;;5052316;28;20056;-71
2021/07/25 07:27:47;;;;;;;12.80;11.32;;;27.10;97.30;;;;;;5051924;28;20406;-71
2021/07/25 07:30:14;;;;;;;13.20;11.80;;;27.10;96.40;;;;;;5051217;28;20199;-70
2021/07/25 07:32:41;;;;;;;13.52;12.02;;;27.00;95.90;;;;;;5052334;28;20049;-71
2021/07/25 07:35:09;;;;;;;14.68;12.13;;;27.30;96.20;;;;;;5051940;28;20045;-71
2021/07/25 07:37:36;;;;;;;13.13;10.68;;;27.60;95.20;;;;;;5052008;28;20106;-70
2021/07/25 07:40:03;;;;;;;12.02;10.75;;;27.80;93.10;;;;;;5051131;28;20471;-71
2021/07/25 07:42:30;;;;;;;12.07;10.48;;;28.40;93.30;;;;;;5051903;28;20041;-70
2021/07/25 07:45:09;;;;;;;12.57;10.93;;;28.20;89.90;;;;;;5051857;28;20409;-71
2021/07/25 07:47:35;;;;;;;12.35;11.05;;;28.30;91.00;;;;;;5052460;28;20044;-71
2021/07/25 07:50:04;;;;;;;12.15;10.85;;;28.20;90.90;;;;;;5051588;28;20045;-71
2021/07/25 07:52:31;;;;;;;14.77;10.75;;;28.20;89.80;;;;;;5051588;28;20427;-70
2021/07/25 07:54:57;;;;;;;13.07;11.30;;;28.20;90.70;;;;;;5051546;28;20280;-70
2021/07/25 07:57:24;;;;;;;11.38;10.27;;;28.20;89.10;;;;;;5051427;28;20103;-70
2021/07/25 07:59:50;;;;;;;14.13;11.43;;;28.30;87.10;;;;;;5051244;28;20096;-71
2021/07/25 08:02:17;;;;;;;12.45;11.35;;;28.00;88.80;;;;;;5053093;28;20045;-71
2021/07/25 08:04:44;;;;;;;23.80;15.55;;;27.60;88.90;;;;;;5052546;28;20068;-71
2021/07/25 08:07:12;;;;;;;12.32;11.02;;;27.70;90.20;;;;;;5051432;28;20045;-71
2021/07/25 08:09:38;;;;;;;14.30;11.57;;;27.80;90.50;;;;;;5050807;28;20103;-71
2021/07/25 08:12:06;;;;;;;11.45;10.25;;;27.80;90.90;;;;;;5051148;28;20067;-71
2021/07/25 08:14:34;;;;;;;13.30;11.90;;;28.40;90.40;;;;;;5052088;28;20045;-80
2021/07/25 08:17:01;;;;;;;11.02;9.88;;;29.00;88.80;;;;;;5052222;28;20057;-71
2021/07/25 08:19:28;;;;;;;11.10;9.93;;;29.40;83.60;;;;;;5050874;28;20099;-71
2021/07/25 08:21:55;;;;;;;13.65;11.50;;;29.50;82.60;;;;;;5051161;28;20131;-71
2021/07/25 08:24:23;;;;;;;11.30;10.02;;;29.70;81.40;;;;;;5051325;28;20049;-71
2021/07/25 08:26:49;;;;;;;13.50;11.93;;;30.10;79.70;;;;;;5051570;28;20045;-71
2021/07/25 08:29:16;;;;;;;13.75;12.32;;;30.60;79.80;;;;;;5051608;28;20048;-72
2021/07/25 08:31:43;;;;;;;12.88;11.63;;;31.30;76.50;;;;;;5051430;28;20486;-71
2021/07/25 08:34:09;;;;;;;11.27;10.18;;;31.10;75.00;;;;;;5051394;28;20106;-70
2021/07/25 08:36:36;;;;;;;12.45;10.18;;;30.90;75.50;;;;;;5050986;28;20041;-71
2021/07/25 08:39:04;;;;;;;12.48;11.13;;;30.70;76.10;;;;;;5051027;28;20049;-71
2021/07/25 08:41:59;;;;;;;12.88;11.50;;;30.60;76.90;;;;;;5051340;28;20076;-71
2021/07/25 08:44:41;;;;;;;11.93;10.82;;;30.70;76.20;;;;;;5052004;28;20410;-70
2021/07/25 08:47:21;;;;;;;10.43;9.52;;;30.60;76.70;;;;;;5052859;28;20107;-71
2021/07/25 08:49:54;;;;;;;13.18;11.93;;;30.10;73.80;;;;;;5054445;28;20049;-70
2021/07/25 08:52:22;;;;;;;12.25;10.43;;;29.60;74.30;;;;;;5055114;28;20099;-71
2021/07/25 08:54:49;;;;;;;9.98;8.98;;;29.80;76.40;;;;;;5054895;28;20555;-71
2021/07/25 08:57:20;;;;;;;10.23;8.85;;;29.90;73.90;;;;;;5055926;28;20040;-71
2021/07/25 08:59:49;;;;;;;11.23;10.02;;;30.20;74.40;;;;;;5054636;28;20049;-71
2021/07/25 09:02:21;;;;;;;11.05;9.82;;;30.80;74.10;;;;;;5054902;28;20045;-69
2021/07/25 09:04:49;;;;;;;11.02;9.93;;;30.60;71.00;;;;;;5054835;28;20467;-71
2021/07/25 09:07:16;;;;;;;11.13;10.13;;;30.50;72.50;;;;;;5054734;28;20095;-69
2021/07/25 09:09:43;;;;;;;10.35;9.40;;;30.60;71.70;;;;;;5053997;28;20052;-71
2021/07/25 09:12:12;;;;;;;12.23;10.88;;;30.40;72.60;;;;;;5054808;28;20417;-71
2021/07/25 09:14:43;;;;;;;13.63;10.48;;;30.60;71.50;;;;;;5054699;28;20107;-71
2021/07/25 09:17:10;;;;;;;11.77;9.80;;;30.60;70.60;;;;;;5054165;28;20049;-71
2021/07/25 09:19:58;;;;;;;10.32;9.23;;;31.00;69.60;;;;;;5062453;28;20094;-71
2021/07/25 09:22:25;;;;;;;11.30;9.85;;;31.20;69.20;;;;;;5073736;28;20540;-70
2021/07/25 09:24:52;;;;;;;11.32;9.40;;;32.00;69.00;;;;;;5073631;28;20053;-72
2021/07/25 09:27:23;;;;;;;11.10;9.75;;;32.50;65.50;;;;;;5074448;28;20090;-71
2021/07/25 09:29:51;;;;;;;11.38;9.32;;;32.60;64.90;;;;;;5073860;28;20066;-71
2021/07/25 09:32:19;;;;;;;12.73;9.18;;;32.60;64.00;;;;;;5073689;28;20334;-71
2021/07/25 09:34:48;;;;;;;11.25;9.02;;;32.60;63.40;;;;;;5061602;28;20049;-70
2021/07/25 09:37:17;;;;;;;9.50;8.68;;;32.10;65.50;;;;;;5054923;28;20157;-71
2021/07/25 09:39:46;;;;;;;9.57;8.63;;;32.10;64.60;;;;;;5073594;28;20048;-71
2021/07/25 09:42:14;;;;;;;11.48;10.18;;;31.80;64.50;;;;;;5074198;28;20041;-71
2021/07/25 09:44:53;;;;;;;10.63;9.45;;;31.70;63.90;;;;;;5065140;28;20075;-71
2021/07/25 09:47:32;;;;;;;11.00;10.00;;;31.90;64.70;;;;;;5053249;28;20497;-71
2021/07/25 09:50:00;;;;;;;11.65;10.60;;;32.10;64.40;;;;;;5052517;28;20132;-71
2021/07/25 09:52:28;;;;;;;11.73;10.18;;;32.10;63.70;;;;;;5053420;28;20106;-71
2021/07/25 09:54:56;;;;;;;11.00;9.77;;;32.20;63.50;;;;;;5053741;28;20092;-72
2021/07/25 09:57:24;;;;;;;12.55;9.40;;;32.50;62.90;;;;;;5053633;28;20110;-71
2021/07/25 09:59:52;;;;;;;11.85;10.68;;;32.60;63.70;;;;;;5052773;28;20051;-71
2021/07/25 10:02:35;;;;;;;13.45;12.07;;;32.90;62.30;;;;;;5065442;28;20055;-71
2021/07/25 10:05:13;;;;;;;13.73;11.07;;;33.10;64.50;;;;;;5072997;28;20507;-71
2021/07/25 10:07:40;;;;;;;12.70;10.02;;;33.60;61.70;;;;;;5073145;28;20067;-71
2021/07/25 10:10:08;;;;;;;13.45;11.30;;;33.90;60.30;;;;;;5072609;28;20044;-72
2021/07/25 10:12:37;;;;;;;10.40;9.43;;;34.40;60.60;;;;;;5073047;28;20048;-71
2021/07/25 10:15:07;;;;;;;10.80;9.80;;;35.10;60.00;;;;;;5073052;28;20106;-72
2021/07/25 10:17:35;;;;;;;10.68;9.43;;;35.50;57.40;;;;;;5072516;28;20485;-72
2021/07/25 10:20:03;;;;;;;13.55;11.00;;;34.30;58.00;;;;;;5072723;28;20113;-71
2021/07/25 10:22:32;;;;;;;12.35;10.60;;;34.10;59.90;;;;;;5073410;28;20050;-70
2021/07/25 10:25:00;;;;;;;11.63;10.60;;;34.00;59.80;;;;;;5073693;28;20041;-71
2021/07/25 10:27:27;;;;;;;11.45;10.38;;;34.50;59.40;;;;;;5073105;28;20037;-71
2021/07/25 10:29:54;;;;;;;19.30;16.00;;;34.60;59.70;;;;;;5075296;28;20044;-71
2021/07/25 10:32:23;;;;;;;11.20;10.10;;;35.20;59.30;;;;;;5076845;28;20078;-71
2021/07/25 10:34:50;;;;;;;11.30;10.10;;;35.30;56.70;;;;;;5073106;28;20041;-72
2021/07/25 10:37:17;;;;;;;12.07;10.88;;;35.70;57.20;;;;;;5072223;28;20147;-72
2021/07/25 10:39:46;;;;;;;12.30;11.02;;;34.90;57.10;;;;;;5052458;28;20041;-72
2021/07/25 10:42:18;;;;;;;10.83;9.83;;;36.00;58.00;;;;;;5054479;28;20045;-71
2021/07/25 10:44:45;;;;;;;11.23;10.13;;;36.00;55.10;;;;;;5057001;28;20052;-71
2021/07/25 10:47:32;;;;;;;10.85;9.85;;;35.40;56.50;;;;;;5066222;28;20053;-71
2021/07/25 10:50:03;;;;;;;10.45;9.45;;;34.80;57.20;;;;;;5058188;28;20099;-71
2021/07/25 10:53:02;;;;;;;12.25;10.93;;;35.10;57.50;;;;;;5052555;28;20052;-72
2021/07/25 10:55:48;;;;;;;11.18;10.07;;;35.90;56.80;;;;;;5052768;28;20463;-74
2021/07/25 10:58:17;;;;;;;10.45;9.50;;;36.60;54.60;;;;;;5052469;28;20057;-71
2021/07/25 11:00:46;;;;;;;10.20;9.30;;;36.00;54.80;;;;;;5052259;28;20052;-71
2021/07/25 11:03:46;;;;;;;10.27;9.35;;;35.40;54.70;;;;;;5052837;28;20084;-72
2021/07/25 11:06:19;;;;;;;10.30;9.32;;;34.40;55.80;;;;;;5052546;28;20103;-71
2021/07/25 11:08:50;;;;;;;14.25;10.00;;;33.30;56.90;;;;;;5051458;28;20049;-71
2021/07/25 11:11:53;;;;;;;10.85;9.95;;;33.50;57.70;;;;;;5051718;28;20567;-72
2021/07/25 11:14:57;;;;;;;10.25;9.32;;;33.90;58.60;;;;;;5052296;28;20049;-72
2021/07/25 11:18:03;;;;;;;10.82;9.80;;;34.30;55.90;;;;;;5052235;28;20111;-72
2021/07/25 11:20:59;;;;;;;10.45;9.45;;;34.50;56.30;;;;;;5036296;28;20048;-72
2021/07/25 11:23:37;;;;;;;10.98;9.88;;;34.80;56.50;;;;;;5052047;28;20055;-72
2021/07/25 11:26:36;;;;;;;10.70;9.60;;;35.90;55.80;;;;;;5052321;28;20045;-70
2021/07/25 11:29:09;;;;;;;10.57;9.48;;;36.30;55.60;;;;;;5051395;28;20053;-71
2021/07/25 11:31:41;;;;;;;10.43;9.50;;;36.60;53.20;;;;;;5052237;28;20474;-71
2021/07/25 11:34:10;;;;;;;10.60;9.60;;;36.40;52.60;;;;;;5051816;28;20451;-70
2021/07/25 11:36:38;;;;;;;11.40;8.60;;;36.40;53.30;;;;;;5052961;28;20045;-71
2021/07/25 11:39:07;;;;;;;11.85;10.00;;;36.30;54.40;;;;;;5052359;28;20079;-72
2021/07/25 11:41:35;;;;;;;9.70;8.90;;;35.60;53.70;;;;;;5052025;28;20114;-71
2021/07/25 11:44:04;;;;;;;10.90;9.80;;;34.70;54.60;;;;;;5052034;28;20045;-72
2021/07/25 11:46:36;;;;;;;10.43;9.02;;;34.10;55.20;;;;;;5051646;28;20052;-72
2021/07/25 11:49:05;;;;;;;9.55;8.60;;;33.40;56.80;;;;;;5051532;28;20409;-71
2021/07/25 11:51:31;;;;;;;9.73;8.10;;;34.30;57.60;;;;;;5052390;28;20045;-72
2021/07/25 11:54:00;;;;;;;9.38;8.23;;;35.10;54.20;;;;;;5051912;28;20475;-70
2021/07/25 11:56:27;;;;;;;9.20;8.30;;;35.30;54.50;;;;;;5051577;28;20102;-71
2021/07/25 11:59:02;;;;;;;9.73;8.70;;;34.70;53.90;;;;;;5050950;28;20460;-70
2021/07/25 12:01:29;;;;;;;9.98;8.98;;;34.20;54.60;;;;;;5051507;28;20107;-71
2021/07/25 12:03:56;;;;;;;9.57;8.68;;;33.90;55.70;;;;;;5051699;28;20057;-71
2021/07/25 12:06:23;;;;;;;9.45;8.55;;;33.70;55.70;;;;;;5051677;28;20041;-71
2021/07/25 12:09:04;;;;;;;9.98;8.95;;;33.00;56.70;;;;;;5050502;28;20563;-71
2021/07/25 12:11:31;;;;;;;10.93;9.68;;;32.40;58.00;;;;;;5051313;28;20390;-70
2021/07/25 12:13:57;;;;;;;9.75;8.75;;;31.80;59.30;;;;;;5051593;28;20056;-71
2021/07/25 12:16:24;;;;;;;10.88;9.73;;;31.80;59.80;;;;;;5051370;28;20056;-71
2021/07/25 12:18:51;;;;;;;9.85;8.90;;;32.00;59.90;;;;;;5051184;28;20049;-79
2021/07/25 12:21:32;;;;;;;11.70;10.50;;;32.10;60.40;;;;;;5051478;28;20045;-72
2021/07/25 12:23:59;;;;;;;12.40;10.73;;;32.40;59.50;;;;;;5055485;28;20045;-71
2021/07/25 12:26:40;;;;;;;11.40;10.30;;;32.50;59.60;;;;;;5055644;28;20049;-72
2021/07/25 12:29:25;;;;;;;;;;;32.30;59.80;;;;;;5055001;28;20754;-72
2021/07/25 12:31:52;;;;;;;11.52;10.43;;;32.10;61.00;;;;;;5055440;28;20344;-72
2021/07/25 12:34:22;;;;;;;12.00;8.65;;;32.60;61.80;;;;;;5055319;28;20048;-71
2021/07/25 12:36:49;;;;;;;11.60;10.05;;;33.10;59.20;;;;;;5055301;28;20455;-71
2021/07/25 12:39:19;;;;;;;11.02;9.90;;;33.70;57.90;;;;;;5054583;28;20103;-72
2021/07/25 12:41:47;;;;;;;10.23;9.02;;;34.40;56.20;;;;;;5055267;28;20052;-71